sensor_id;sensor_type;location;lat;lon;timestamp;temperature;humidity
12013;DHT22;6065;48.138;16.402;2023-03-01T00:01:02;0.80;99.90
12013;DHT22;6065;48.138;16.402;2023-03-01T00:03:29;0.80;99.90
12013;DHT22;6065;48.138;16.402;2023-03-01T00:05:55;0.80;99.90
12013;DHT22;6065;48.138;16.402;2023-03-01T00:08:22;0.80;99.90
12013;DHT22;6065;48.138;16.402;2023-03-01T00:10:50;0.80;99.90
12013;DHT22;6065;48.138;16.402;2023-03-01T00:13:25;0.70;99.90
12013;DHT22;6065;48.138;16.402;2023-03-01T00:15:52;0.70;99.90
12013;DHT22;6065;48.138;16.402;2023-03-01T00:18:19;0.70;99.90
12013;DHT22;6065;48.138;16.402;2023-03-01T00:20:48;0.80;99.90
12013;DHT22;6065;48.138;16.402;2023-03-01T00:23:15;0.70;99.90
12013;DHT22;6065;48.138;16.402;2023-03-01T00:25:42;0.70;99.90
12013;DHT22;6065;48.138;16.402;2023-03-01T00:28:10;0.70;99.90
12013;DHT22;6065;48.138;16.402;2023-03-01T00:30:37;0.70;99.90
12013;DHT22;6065;48.138;16.402;2023-03-01T00:33:04;0.60;99.90
12013;DHT22;6065;48.138;16.402;2023-03-01T00:35:31;0.60;99.90
12013;DHT22;6065;48.138;16.402;2023-03-01T00:37:58;0.60;99.90
12013;DHT22;6065;48.138;16.402;2023-03-01T00:40:25;0.60;99.90
12013;DHT22;6065;48.138;16.402;2023-03-01T00:42:52;0.60;99.90
12013;DHT22;6065;48.138;16.402;2023-03-01T00:45:20;0.60;99.90
12013;DHT22;6065;48.138;16.402;2023-03-01T00:47:46;0.60;99.90
12013;DHT22;6065;48.138;16.402;2023-03-01T00:50:14;0.60;99.90
12013;DHT22;6065;48.138;16.402;2023-03-01T00:52:41;0.50;99.90
12013;DHT22;6065;48.138;16.402;2023-03-01T00:55:08;0.60;99.90
12013;DHT22;6065;48.138;16.402;2023-03-01T00:57:34;0.50;99.90
12013;DHT22;6065;48.138;16.402;2023-03-01T01:00:02;0.60;99.90
12013;DHT22;6065;48.138;16.402;2023-03-01T01:02:31;0.60;99.90
12013;DHT22;6065;48.138;16.402;2023-03-01T01:04:58;0.60;99.90
12013;DHT22;6065;48.138;16.402;2023-03-01T01:07:24;0.60;99.90
12013;DHT22;6065;48.138;16.402;2023-03-01T01:09:51;0.50;99.90
12013;DHT22;6065;48.138;16.402;2023-03-01T01:12:18;0.50;99.90
12013;DHT22;6065;48.138;16.402;2023-03-01T01:14:44;0.50;99.90
12013;DHT22;6065;48.138;16.402;2023-03-01T01:17:11;0.50;99.90
12013;DHT22;6065;48.138;16.402;2023-03-01T01:19:39;0.40;99.90
12013;DHT22;6065;48.138;16.402;2023-03-01T01:22:06;0.40;99.90
12013;DHT22;6065;48.138;16.402;2023-03-01T01:24:33;0.40;99.90
12013;DHT22;6065;48.138;16.402;2023-03-01T01:26:59;0.40;99.90
12013;DHT22;6065;48.138;16.402;2023-03-01T01:29:26;0.50;99.90
12013;DHT22;6065;48.138;16.402;2023-03-01T01:31:52;0.60;99.90
12013;DHT22;6065;48.138;16.402;2023-03-01T01:34:20;0.60;99.90
12013;DHT22;6065;48.138;16.402;2023-03-01T01:36:49;0.60;99.90
12013;DHT22;6065;48.138;16.402;2023-03-01T01:39:16;0.60;99.90
12013;DHT22;6065;48.138;16.402;2023-03-01T01:41:42;0.60;99.90
12013;DHT22;6065;48.138;16.402;2023-03-01T01:44:10;0.60;99.90
12013;DHT22;6065;48.138;16.402;2023-03-01T01:46:37;0.60;99.90
12013;DHT22;6065;48.138;16.402;2023-03-01T01:49:07;0.60;99.90
12013;DHT22;6065;48.138;16.402;2023-03-01T01:51:39;0.60;99.90
12013;DHT22;6065;48.138;16.402;2023-03-01T01:54:08;0.50;99.90
12013;DHT22;6065;48.138;16.402;2023-03-01T01:56:36;0.50;99.90
12013;DHT22;6065;48.138;16.402;2023-03-01T01:59:03;0.50;99.90
12013;DHT22;6065;48.138;16.402;2023-03-01T02:01:30;0.50;99.90
12013;DHT22;6065;48.138;16.402;2023-03-01T02:03:57;0.50;99.90
12013;DHT22;6065;48.138;16.402;2023-03-01T02:06:26;0.50;99.90
12013;DHT22;6065;48.138;16.402;2023-03-01T02:08:55;0.60;99.90
12013;DHT22;6065;48.138;16.402;2023-03-01T02:11:25;0.60;99.90
12013;DHT22;6065;48.138;16.402;2023-03-01T02:13:52;0.60;99.90
12013;DHT22;6065;48.138;16.402;2023-03-01T02:16:19;0.70;99.90
12013;DHT22;6065;48.138;16.402;2023-03-01T02:18:46;0.60;99.90
12013;DHT22;6065;48.138;16.402;2023-03-01T02:21:17;0.70;99.90
12013;DHT22;6065;48.138;16.402;2023-03-01T02:23:47;0.70;99.90
12013;DHT22;6065;48.138;16.402;2023-03-01T02:26:17;0.70;99.90
12013;DHT22;6065;48.138;16.402;2023-03-01T02:28:48;0.70;99.90
12013;DHT22;6065;48.138;16.402;2023-03-01T02:31:16;0.70;99.90
12013;DHT22;6065;48.138;16.402;2023-03-01T02:34:01;0.70;99.90
12013;DHT22;6065;48.138;16.402;2023-03-01T02:36:30;0.70;99.90
12013;DHT22;6065;48.138;16.402;2023-03-01T02:38:58;0.70;99.90
12013;DHT22;6065;48.138;16.402;2023-03-01T02:41:25;0.80;99.90
12013;DHT22;6065;48.138;16.402;2023-03-01T02:43:54;0.80;99.90
12013;DHT22;6065;48.138;16.402;2023-03-01T02:46:22;0.80;99.90
12013;DHT22;6065;48.138;16.402;2023-03-01T02:48:49;0.80;99.90
12013;DHT22;6065;48.138;16.402;2023-03-01T02:51:20;0.90;99.90
12013;DHT22;6065;48.138;16.402;2023-03-01T02:53:51;0.90;99.90
12013;DHT22;6065;48.138;16.402;2023-03-01T02:56:20;0.90;99.90
12013;DHT22;6065;48.138;16.402;2023-03-01T02:58:47;0.90;99.90
12013;DHT22;6065;48.138;16.402;2023-03-01T03:01:18;0.90;99.90
12013;DHT22;6065;48.138;16.402;2023-03-01T03:03:45;0.90;99.90
12013;DHT22;6065;48.138;16.402;2023-03-01T03:06:12;1.00;99.90
12013;DHT22;6065;48.138;16.402;2023-03-01T03:08:39;1.00;99.90
12013;DHT22;6065;48.138;16.402;2023-03-01T03:11:05;1.00;99.90
12013;DHT22;6065;48.138;16.402;2023-03-01T03:13:32;1.00;99.90
12013;DHT22;6065;48.138;16.402;2023-03-01T03:15:59;1.00;99.90
12013;DHT22;6065;48.138;16.402;2023-03-01T03:18:27;1.00;99.90
12013;DHT22;6065;48.138;16.402;2023-03-01T03:20:53;1.00;99.90
12013;DHT22;6065;48.138;16.402;2023-03-01T03:23:20;1.00;99.90
12013;DHT22;6065;48.138;16.402;2023-03-01T03:25:47;1.00;99.90
12013;DHT22;6065;48.138;16.402;2023-03-01T03:28:14;1.00;99.90
12013;DHT22;6065;48.138;16.402;2023-03-01T03:30:41;1.00;99.90
12013;DHT22;6065;48.138;16.402;2023-03-01T03:33:08;1.00;99.90
12013;DHT22;6065;48.138;16.402;2023-03-01T03:35:40;1.10;99.90
12013;DHT22;6065;48.138;16.402;2023-03-01T03:38:08;1.10;99.90
12013;DHT22;6065;48.138;16.402;2023-03-01T03:40:41;1.10;99.90
12013;DHT22;6065;48.138;16.402;2023-03-01T03:43:09;1.10;99.90
12013;DHT22;6065;48.138;16.402;2023-03-01T03:45:37;1.20;99.90
12013;DHT22;6065;48.138;16.402;2023-03-01T03:48:06;1.10;99.90
12013;DHT22;6065;48.138;16.402;2023-03-01T03:50:33;1.20;99.90
12013;DHT22;6065;48.138;16.402;2023-03-01T03:53:02;1.30;99.90
12013;DHT22;6065;48.138;16.402;2023-03-01T03:55:29;1.20;99.90
12013;DHT22;6065;48.138;16.402;2023-03-01T03:57:56;1.40;99.90
12013;DHT22;6065;48.138;16.402;2023-03-01T04:00:23;1.30;99.90
12013;DHT22;6065;48.138;16.402;2023-03-01T04:02:50;1.30;99.90
12013;DHT22;6065;48.138;16.402;2023-03-01T04:05:21;1.40;99.90
12013;DHT22;6065;48.138;16.402;2023-03-01T04:07:48;1.40;99.90
12013;DHT22;6065;48.138;16.402;2023-03-01T04:10:28;1.40;99.90
12013;DHT22;6065;48.138;16.402;2023-03-01T04:12:55;1.40;99.90
12013;DHT22;6065;48.138;16.402;2023-03-01T04:15:22;1.40;99.90
12013;DHT22;6065;48.138;16.402;2023-03-01T04:17:50;1.40;99.90
12013;DHT22;6065;48.138;16.402;2023-03-01T04:20:18;1.40;99.90
12013;DHT22;6065;48.138;16.402;2023-03-01T04:22:50;1.40;99.90
12013;DHT22;6065;48.138;16.402;2023-03-01T04:25:17;1.40;99.90
12013;DHT22;6065;48.138;16.402;2023-03-01T04:27:45;1.40;99.90
12013;DHT22;6065;48.138;16.402;2023-03-01T04:30:12;1.40;99.90
12013;DHT22;6065;48.138;16.402;2023-03-01T04:32:39;1.40;99.90
12013;DHT22;6065;48.138;16.402;2023-03-01T04:35:06;1.50;99.90
12013;DHT22;6065;48.138;16.402;2023-03-01T04:37:32;1.50;99.90
12013;DHT22;6065;48.138;16.402;2023-03-01T04:40:00;1.50;99.90
12013;DHT22;6065;48.138;16.402;2023-03-01T04:42:27;1.50;99.90
12013;DHT22;6065;48.138;16.402;2023-03-01T04:44:55;1.40;99.90
12013;DHT22;6065;48.138;16.402;2023-03-01T04:47:21;1.50;99.90
12013;DHT22;6065;48.138;16.402;2023-03-01T04:49:48;1.40;99.90
12013;DHT22;6065;48.138;16.402;2023-03-01T04:52:15;1.40;99.90
12013;DHT22;6065;48.138;16.402;2023-03-01T04:54:41;1.40;99.90
12013;DHT22;6065;48.138;16.402;2023-03-01T04:57:08;1.40;99.90
12013;DHT22;6065;48.138;16.402;2023-03-01T04:59:35;1.40;99.90
12013;DHT22;6065;48.138;16.402;2023-03-01T05:02:03;1.50;99.90
12013;DHT22;6065;48.138;16.402;2023-03-01T05:04:30;1.50;99.90
12013;DHT22;6065;48.138;16.402;2023-03-01T05:06:56;1.40;99.90
12013;DHT22;6065;48.138;16.402;2023-03-01T05:09:24;1.40;99.90
12013;DHT22;6065;48.138;16.402;2023-03-01T05:11:50;1.40;99.90
12013;DHT22;6065;48.138;16.402;2023-03-01T05:14:17;1.40;99.90
12013;DHT22;6065;48.138;16.402;2023-03-01T05:16:44;1.40;99.90
12013;DHT22;6065;48.138;16.402;2023-03-01T05:19:12;1.40;99.90
12013;DHT22;6065;48.138;16.402;2023-03-01T05:21:40;1.40;99.90
12013;DHT22;6065;48.138;16.402;2023-03-01T05:24:21;1.40;99.90
12013;DHT22;6065;48.138;16.402;2023-03-01T05:26:48;1.40;99.90
12013;DHT22;6065;48.138;16.402;2023-03-01T05:29:15;1.40;99.90
12013;DHT22;6065;48.138;16.402;2023-03-01T05:31:42;1.40;99.90
12013;DHT22;6065;48.138;16.402;2023-03-01T05:34:09;1.40;99.90
12013;DHT22;6065;48.138;16.402;2023-03-01T05:36:39;1.40;99.90
12013;DHT22;6065;48.138;16.402;2023-03-01T05:39:06;1.40;99.90
12013;DHT22;6065;48.138;16.402;2023-03-01T05:41:32;1.40;99.90
12013;DHT22;6065;48.138;16.402;2023-03-01T05:43:59;1.40;99.90
12013;DHT22;6065;48.138;16.402;2023-03-01T05:46:26;1.40;99.90
12013;DHT22;6065;48.138;16.402;2023-03-01T05:48:52;1.50;99.90
12013;DHT22;6065;48.138;16.402;2023-03-01T05:51:19;1.40;99.90
12013;DHT22;6065;48.138;16.402;2023-03-01T05:53:48;1.40;99.90
12013;DHT22;6065;48.138;16.402;2023-03-01T05:56:15;1.40;99.90
12013;DHT22;6065;48.138;16.402;2023-03-01T05:58:42;1.40;99.90
12013;DHT22;6065;48.138;16.402;2023-03-01T06:01:10;1.40;99.90
12013;DHT22;6065;48.138;16.402;2023-03-01T06:03:37;1.40;99.90
12013;DHT22;6065;48.138;16.402;2023-03-01T06:06:04;1.50;99.90
12013;DHT22;6065;48.138;16.402;2023-03-01T06:08:31;1.40;99.90
12013;DHT22;6065;48.138;16.402;2023-03-01T06:10:59;1.50;99.90
12013;DHT22;6065;48.138;16.402;2023-03-01T06:13:25;1.50;99.90
12013;DHT22;6065;48.138;16.402;2023-03-01T06:15:52;1.50;99.90
12013;DHT22;6065;48.138;16.402;2023-03-01T06:18:19;1.50;99.90
12013;DHT22;6065;48.138;16.402;2023-03-01T06:20:45;1.50;99.90
12013;DHT22;6065;48.138;16.402;2023-03-01T06:23:18;1.50;99.90
12013;DHT22;6065;48.138;16.402;2023-03-01T06:25:45;1.60;99.90
12013;DHT22;6065;48.138;16.402;2023-03-01T06:28:13;1.60;99.90
12013;DHT22;6065;48.138;16.402;2023-03-01T06:30:39;1.60;99.90
12013;DHT22;6065;48.138;16.402;2023-03-01T06:33:06;1.70;99.90
12013;DHT22;6065;48.138;16.402;2023-03-01T06:35:33;1.70;99.90
12013;DHT22;6065;48.138;16.402;2023-03-01T06:38:00;1.70;99.90
12013;DHT22;6065;48.138;16.402;2023-03-01T06:40:27;1.70;99.90
12013;DHT22;6065;48.138;16.402;2023-03-01T06:42:54;1.70;99.90
12013;DHT22;6065;48.138;16.402;2023-03-01T06:45:22;1.70;99.90
12013;DHT22;6065;48.138;16.402;2023-03-01T06:47:49;1.70;99.90
12013;DHT22;6065;48.138;16.402;2023-03-01T06:50:16;1.70;99.90
12013;DHT22;6065;48.138;16.402;2023-03-01T06:52:44;1.70;99.90
12013;DHT22;6065;48.138;16.402;2023-03-01T06:55:11;1.70;99.90
12013;DHT22;6065;48.138;16.402;2023-03-01T06:57:38;1.70;99.90
12013;DHT22;6065;48.138;16.402;2023-03-01T07:00:05;1.70;99.90
12013;DHT22;6065;48.138;16.402;2023-03-01T07:02:33;1.70;99.90
12013;DHT22;6065;48.138;16.402;2023-03-01T07:05:00;1.80;99.90
12013;DHT22;6065;48.138;16.402;2023-03-01T07:07:27;1.80;99.90
12013;DHT22;6065;48.138;16.402;2023-03-01T07:09:53;1.80;99.90
12013;DHT22;6065;48.138;16.402;2023-03-01T07:12:20;1.80;99.90
12013;DHT22;6065;48.138;16.402;2023-03-01T07:14:47;1.80;99.90
12013;DHT22;6065;48.138;16.402;2023-03-01T07:17:13;1.80;99.90
12013;DHT22;6065;48.138;16.402;2023-03-01T07:19:41;1.90;99.90
12013;DHT22;6065;48.138;16.402;2023-03-01T07:22:09;1.90;99.90
12013;DHT22;6065;48.138;16.402;2023-03-01T07:24:36;1.80;99.90
12013;DHT22;6065;48.138;16.402;2023-03-01T07:27:03;1.90;99.90
12013;DHT22;6065;48.138;16.402;2023-03-01T07:29:29;1.90;99.90
12013;DHT22;6065;48.138;16.402;2023-03-01T07:31:56;1.90;99.90
12013;DHT22;6065;48.138;16.402;2023-03-01T07:34:23;1.90;99.90
12013;DHT22;6065;48.138;16.402;2023-03-01T07:36:51;2.00;99.90
12013;DHT22;6065;48.138;16.402;2023-03-01T07:39:18;2.00;99.90
12013;DHT22;6065;48.138;16.402;2023-03-01T07:41:45;2.00;99.90
12013;DHT22;6065;48.138;16.402;2023-03-01T07:44:11;2.00;99.90
12013;DHT22;6065;48.138;16.402;2023-03-01T07:46:38;2.00;99.90
12013;DHT22;6065;48.138;16.402;2023-03-01T07:49:04;2.10;99.90
12013;DHT22;6065;48.138;16.402;2023-03-01T07:51:31;2.00;99.90
12013;DHT22;6065;48.138;16.402;2023-03-01T07:53:59;2.10;99.90
12013;DHT22;6065;48.138;16.402;2023-03-01T07:56:26;2.10;99.90
12013;DHT22;6065;48.138;16.402;2023-03-01T07:58:53;2.10;99.90
12013;DHT22;6065;48.138;16.402;2023-03-01T08:01:20;2.10;99.90
12013;DHT22;6065;48.138;16.402;2023-03-01T08:03:47;2.10;99.90
12013;DHT22;6065;48.138;16.402;2023-03-01T08:06:16;2.10;99.90
12013;DHT22;6065;48.138;16.402;2023-03-01T08:08:43;2.20;99.90
12013;DHT22;6065;48.138;16.402;2023-03-01T08:11:12;2.20;99.90
12013;DHT22;6065;48.138;16.402;2023-03-01T08:13:39;2.20;99.90
12013;DHT22;6065;48.138;16.402;2023-03-01T08:16:06;2.20;99.90
12013;DHT22;6065;48.138;16.402;2023-03-01T08:18:33;2.30;99.90
12013;DHT22;6065;48.138;16.402;2023-03-01T08:21:03;2.30;99.90
12013;DHT22;6065;48.138;16.402;2023-03-01T08:23:30;2.40;99.90
12013;DHT22;6065;48.138;16.402;2023-03-01T08:26:02;2.30;99.90
12013;DHT22;6065;48.138;16.402;2023-03-01T08:28:31;2.30;99.90
12013;DHT22;6065;48.138;16.402;2023-03-01T08:30:57;2.40;99.90
12013;DHT22;6065;48.138;16.402;2023-03-01T08:33:24;2.40;99.90
12013;DHT22;6065;48.138;16.402;2023-03-01T08:35:51;2.40;99.90
12013;DHT22;6065;48.138;16.402;2023-03-01T08:38:17;2.40;99.90
12013;DHT22;6065;48.138;16.402;2023-03-01T08:40:44;2.40;99.90
12013;DHT22;6065;48.138;16.402;2023-03-01T08:43:11;2.50;99.90
12013;DHT22;6065;48.138;16.402;2023-03-01T08:45:39;2.50;99.90
12013;DHT22;6065;48.138;16.402;2023-03-01T08:48:05;2.60;99.90
12013;DHT22;6065;48.138;16.402;2023-03-01T08:50:32;2.60;99.90
12013;DHT22;6065;48.138;16.402;2023-03-01T08:52:59;2.70;99.90
12013;DHT22;6065;48.138;16.402;2023-03-01T08:55:25;2.70;99.90
12013;DHT22;6065;48.138;16.402;2023-03-01T08:57:52;2.70;99.90
12013;DHT22;6065;48.138;16.402;2023-03-01T09:00:19;2.80;99.90
12013;DHT22;6065;48.138;16.402;2023-03-01T09:02:47;2.80;99.90
12013;DHT22;6065;48.138;16.402;2023-03-01T09:05:14;2.90;99.90
12013;DHT22;6065;48.138;16.402;2023-03-01T09:07:40;2.90;99.90
12013;DHT22;6065;48.138;16.402;2023-03-01T09:10:07;3.00;99.90
12013;DHT22;6065;48.138;16.402;2023-03-01T09:12:34;3.00;99.90
12013;DHT22;6065;48.138;16.402;2023-03-01T09:15:01;3.10;99.90
12013;DHT22;6065;48.138;16.402;2023-03-01T09:17:28;3.10;99.90
12013;DHT22;6065;48.138;16.402;2023-03-01T09:19:56;3.00;99.90
12013;DHT22;6065;48.138;16.402;2023-03-01T09:22:22;3.00;99.90
12013;DHT22;6065;48.138;16.402;2023-03-01T09:24:49;3.10;99.90
12013;DHT22;6065;48.138;16.402;2023-03-01T09:27:16;3.10;99.90
12013;DHT22;6065;48.138;16.402;2023-03-01T09:29:44;3.20;99.90
12013;DHT22;6065;48.138;16.402;2023-03-01T09:32:10;3.20;99.90
12013;DHT22;6065;48.138;16.402;2023-03-01T09:34:37;3.30;99.90
12013;DHT22;6065;48.138;16.402;2023-03-01T09:37:19;3.30;99.90
12013;DHT22;6065;48.138;16.402;2023-03-01T09:39:45;3.40;99.90
12013;DHT22;6065;48.138;16.402;2023-03-01T09:42:12;3.40;99.90
12013;DHT22;6065;48.138;16.402;2023-03-01T09:44:42;3.40;99.90
12013;DHT22;6065;48.138;16.402;2023-03-01T09:47:11;3.50;99.90
12013;DHT22;6065;48.138;16.402;2023-03-01T09:49:39;3.50;99.90
12013;DHT22;6065;48.138;16.402;2023-03-01T09:52:23;3.60;99.90
12013;DHT22;6065;48.138;16.402;2023-03-01T09:54:52;3.60;99.90
12013;DHT22;6065;48.138;16.402;2023-03-01T09:57:22;3.60;99.90
12013;DHT22;6065;48.138;16.402;2023-03-01T09:59:55;3.60;99.90
12013;DHT22;6065;48.138;16.402;2023-03-01T10:02:26;3.70;99.90
12013;DHT22;6065;48.138;16.402;2023-03-01T10:04:55;3.70;99.90
12013;DHT22;6065;48.138;16.402;2023-03-01T10:07:27;3.90;99.90
12013;DHT22;6065;48.138;16.402;2023-03-01T10:09:58;3.80;99.90
12013;DHT22;6065;48.138;16.402;2023-03-01T10:12:27;3.90;99.90
12013;DHT22;6065;48.138;16.402;2023-03-01T10:14:57;4.00;99.90
12013;DHT22;6065;48.138;16.402;2023-03-01T10:17:30;4.10;99.90
12013;DHT22;6065;48.138;16.402;2023-03-01T10:19:59;4.20;99.90
12013;DHT22;6065;48.138;16.402;2023-03-01T10:22:36;4.30;99.90
12013;DHT22;6065;48.138;16.402;2023-03-01T10:25:05;4.40;99.90
12013;DHT22;6065;48.138;16.402;2023-03-01T10:27:34;4.40;99.90
12013;DHT22;6065;48.138;16.402;2023-03-01T10:30:03;4.50;99.90
12013;DHT22;6065;48.138;16.402;2023-03-01T10:32:32;4.50;99.90
12013;DHT22;6065;48.138;16.402;2023-03-01T10:34:59;4.60;99.90
12013;DHT22;6065;48.138;16.402;2023-03-01T10:37:25;4.60;99.90
12013;DHT22;6065;48.138;16.402;2023-03-01T10:39:56;4.60;99.90
12013;DHT22;6065;48.138;16.402;2023-03-01T10:42:27;4.70;99.90
12013;DHT22;6065;48.138;16.402;2023-03-01T10:44:54;4.80;99.90
12013;DHT22;6065;48.138;16.402;2023-03-01T10:47:21;4.80;99.90
12013;DHT22;6065;48.138;16.402;2023-03-01T10:49:52;4.90;99.90
12013;DHT22;6065;48.138;16.402;2023-03-01T10:52:19;5.00;99.90
12013;DHT22;6065;48.138;16.402;2023-03-01T10:54:51;5.10;99.90
12013;DHT22;6065;48.138;16.402;2023-03-01T10:57:24;5.30;99.90
12013;DHT22;6065;48.138;16.402;2023-03-01T11:00:02;5.40;99.90
12013;DHT22;6065;48.138;16.402;2023-03-01T11:02:30;5.50;99.90
12013;DHT22;6065;48.138;16.402;2023-03-01T11:04:59;5.60;99.90
12013;DHT22;6065;48.138;16.402;2023-03-01T11:07:25;5.70;99.90
12013;DHT22;6065;48.138;16.402;2023-03-01T11:09:52;5.70;99.90
12013;DHT22;6065;48.138;16.402;2023-03-01T11:12:19;5.80;99.90
12013;DHT22;6065;48.138;16.402;2023-03-01T11:14:47;5.80;99.90
12013;DHT22;6065;48.138;16.402;2023-03-01T11:17:17;5.80;99.90
12013;DHT22;6065;48.138;16.402;2023-03-01T11:19:44;5.90;99.90
12013;DHT22;6065;48.138;16.402;2023-03-01T11:22:25;6.00;99.90
12013;DHT22;6065;48.138;16.402;2023-03-01T11:24:53;6.10;99.90
12013;DHT22;6065;48.138;16.402;2023-03-01T11:27:21;6.20;99.90
12013;DHT22;6065;48.138;16.402;2023-03-01T11:29:50;6.30;99.90
12013;DHT22;6065;48.138;16.402;2023-03-01T11:32:19;6.50;99.50
12013;DHT22;6065;48.138;16.402;2023-03-01T11:34:47;6.60;99.90
12013;DHT22;6065;48.138;16.402;2023-03-01T11:37:16;6.80;99.90
12013;DHT22;6065;48.138;16.402;2023-03-01T11:39:50;7.00;99.90
12013;DHT22;6065;48.138;16.402;2023-03-01T11:42:20;7.10;99.30
12013;DHT22;6065;48.138;16.402;2023-03-01T11:44:48;7.10;99.10
12013;DHT22;6065;48.138;16.402;2023-03-01T11:47:21;7.20;99.20
12013;DHT22;6065;48.138;16.402;2023-03-01T11:49:52;7.10;99.60
12013;DHT22;6065;48.138;16.402;2023-03-01T11:52:22;7.10;99.60
12013;DHT22;6065;48.138;16.402;2023-03-01T11:54:57;7.00;99.20
12013;DHT22;6065;48.138;16.402;2023-03-01T11:57:32;7.00;99.40
12013;DHT22;6065;48.138;16.402;2023-03-01T12:00:06;6.90;99.60
12013;DHT22;6065;48.138;16.402;2023-03-01T12:05:31;6.90;99.90
12013;DHT22;6065;48.138;16.402;2023-03-01T12:08:05;6.90;99.90
12013;DHT22;6065;48.138;16.402;2023-03-01T12:10:34;6.90;99.90
12013;DHT22;6065;48.138;16.402;2023-03-01T12:13:13;6.90;99.90
12013;DHT22;6065;48.138;16.402;2023-03-01T12:15:46;6.90;99.90
12013;DHT22;6065;48.138;16.402;2023-03-01T12:21:00;6.80;99.90
12013;DHT22;6065;48.138;16.402;2023-03-01T12:26:24;6.70;99.90
12013;DHT22;6065;48.138;16.402;2023-03-01T12:28:59;6.70;99.90
12013;DHT22;6065;48.138;16.402;2023-03-01T12:34:23;6.70;99.90
12013;DHT22;6065;48.138;16.402;2023-03-01T12:36:56;6.80;99.90
12013;DHT22;6065;48.138;16.402;2023-03-01T12:39:32;6.80;99.90
12013;DHT22;6065;48.138;16.402;2023-03-01T12:42:04;6.80;99.90
12013;DHT22;6065;48.138;16.402;2023-03-01T12:44:38;6.80;99.90
12013;DHT22;6065;48.138;16.402;2023-03-01T12:47:10;6.80;99.90
12013;DHT22;6065;48.138;16.402;2023-03-01T12:49:40;6.80;99.90
12013;DHT22;6065;48.138;16.402;2023-03-01T12:52:11;6.80;99.90
12013;DHT22;6065;48.138;16.402;2023-03-01T12:54:40;6.90;99.90
12013;DHT22;6065;48.138;16.402;2023-03-01T12:57:09;6.90;99.90
12013;DHT22;6065;48.138;16.402;2023-03-01T12:59:38;7.00;99.90
12013;DHT22;6065;48.138;16.402;2023-03-01T13:02:09;7.00;99.90
12013;DHT22;6065;48.138;16.402;2023-03-01T13:04:47;7.10;99.90
12013;DHT22;6065;48.138;16.402;2023-03-01T13:07:21;7.10;99.90
12013;DHT22;6065;48.138;16.402;2023-03-01T13:09:51;7.20;99.90
12013;DHT22;6065;48.138;16.402;2023-03-01T13:15:13;7.20;99.90
12013;DHT22;6065;48.138;16.402;2023-03-01T13:17:51;7.30;99.90
12013;DHT22;6065;48.138;16.402;2023-03-01T13:20:19;7.30;99.90
12013;DHT22;6065;48.138;16.402;2023-03-01T13:22:47;7.30;99.90
12013;DHT22;6065;48.138;16.402;2023-03-01T13:25:16;7.30;99.90
12013;DHT22;6065;48.138;16.402;2023-03-01T13:27:44;7.40;99.90
12013;DHT22;6065;48.138;16.402;2023-03-01T13:32:52;7.40;99.90
12013;DHT22;6065;48.138;16.402;2023-03-01T13:35:42;7.40;99.90
12013;DHT22;6065;48.138;16.402;2023-03-01T13:40:59;7.40;99.90
12013;DHT22;6065;48.138;16.402;2023-03-01T13:43:28;7.40;99.90
12013;DHT22;6065;48.138;16.402;2023-03-01T13:45:55;7.40;99.90
12013;DHT22;6065;48.138;16.402;2023-03-01T13:48:22;7.40;99.90
12013;DHT22;6065;48.138;16.402;2023-03-01T13:50:50;7.40;99.90
12013;DHT22;6065;48.138;16.402;2023-03-01T13:53:18;7.40;99.90
12013;DHT22;6065;48.138;16.402;2023-03-01T13:55:46;7.40;99.90
12013;DHT22;6065;48.138;16.402;2023-03-01T13:58:16;7.40;99.90
12013;DHT22;6065;48.138;16.402;2023-03-01T14:00:47;7.50;99.90
12013;DHT22;6065;48.138;16.402;2023-03-01T14:03:14;7.50;99.90
12013;DHT22;6065;48.138;16.402;2023-03-01T14:05:42;7.50;99.90
12013;DHT22;6065;48.138;16.402;2023-03-01T14:08:20;7.50;99.90
12013;DHT22;6065;48.138;16.402;2023-03-01T14:10:51;7.50;99.90
12013;DHT22;6065;48.138;16.402;2023-03-01T14:13:25;7.50;99.90
12013;DHT22;6065;48.138;16.402;2023-03-01T14:16:01;7.50;99.90
12013;DHT22;6065;48.138;16.402;2023-03-01T14:18:32;7.50;99.90
12013;DHT22;6065;48.138;16.402;2023-03-01T14:20:59;7.50;99.90
12013;DHT22;6065;48.138;16.402;2023-03-01T14:23:26;7.50;99.90
12013;DHT22;6065;48.138;16.402;2023-03-01T14:25:53;7.50;99.90
12013;DHT22;6065;48.138;16.402;2023-03-01T14:28:21;7.50;99.90
12013;DHT22;6065;48.138;16.402;2023-03-01T14:30:51;7.50;99.90
12013;DHT22;6065;48.138;16.402;2023-03-01T14:33:19;7.50;99.90
12013;DHT22;6065;48.138;16.402;2023-03-01T14:35:51;7.40;99.90
12013;DHT22;6065;48.138;16.402;2023-03-01T14:38:20;7.40;99.90
12013;DHT22;6065;48.138;16.402;2023-03-01T14:40:46;7.40;99.90
12013;DHT22;6065;48.138;16.402;2023-03-01T14:43:17;7.40;99.90
12013;DHT22;6065;48.138;16.402;2023-03-01T14:45:47;7.40;99.90
12013;DHT22;6065;48.138;16.402;2023-03-01T14:48:16;7.40;99.90
12013;DHT22;6065;48.138;16.402;2023-03-01T14:50:43;7.40;99.90
12013;DHT22;6065;48.138;16.402;2023-03-01T14:53:14;7.40;99.90
12013;DHT22;6065;48.138;16.402;2023-03-01T14:55:42;7.40;99.90
12013;DHT22;6065;48.138;16.402;2023-03-01T14:58:11;7.40;99.90
12013;DHT22;6065;48.138;16.402;2023-03-01T15:00:38;7.40;99.90
12013;DHT22;6065;48.138;16.402;2023-03-01T15:03:06;7.40;99.90
12013;DHT22;6065;48.138;16.402;2023-03-01T15:05:36;7.40;99.90
12013;DHT22;6065;48.138;16.402;2023-03-01T15:08:03;7.30;99.90
12013;DHT22;6065;48.138;16.402;2023-03-01T15:10:30;7.30;99.90
12013;DHT22;6065;48.138;16.402;2023-03-01T15:13:09;7.30;99.90
12013;DHT22;6065;48.138;16.402;2023-03-01T15:15:40;7.30;99.90
12013;DHT22;6065;48.138;16.402;2023-03-01T15:18:14;7.20;99.90
12013;DHT22;6065;48.138;16.402;2023-03-01T15:20:43;7.30;99.90
12013;DHT22;6065;48.138;16.402;2023-03-01T15:23:18;7.20;99.90
12013;DHT22;6065;48.138;16.402;2023-03-01T15:25:45;7.20;99.90
12013;DHT22;6065;48.138;16.402;2023-03-01T15:28:17;7.20;99.90
12013;DHT22;6065;48.138;16.402;2023-03-01T15:30:44;7.20;99.90
12013;DHT22;6065;48.138;16.402;2023-03-01T15:33:18;7.30;99.90
12013;DHT22;6065;48.138;16.402;2023-03-01T15:35:47;7.30;99.90
12013;DHT22;6065;48.138;16.402;2023-03-01T15:38:23;7.20;99.90
12013;DHT22;6065;48.138;16.402;2023-03-01T15:40:50;7.20;99.90
12013;DHT22;6065;48.138;16.402;2023-03-01T15:45:58;7.20;99.90
12013;DHT22;6065;48.138;16.402;2023-03-01T15:48:25;7.20;99.90
12013;DHT22;6065;48.138;16.402;2023-03-01T15:50:55;7.20;99.90
12013;DHT22;6065;48.138;16.402;2023-03-01T15:53:23;7.10;99.90
12013;DHT22;6065;48.138;16.402;2023-03-01T15:55:50;7.10;99.90
12013;DHT22;6065;48.138;16.402;2023-03-01T15:58:18;7.10;99.90
12013;DHT22;6065;48.138;16.402;2023-03-01T16:00:46;7.10;99.90
12013;DHT22;6065;48.138;16.402;2023-03-01T16:03:14;7.00;99.90
12013;DHT22;6065;48.138;16.402;2023-03-01T16:05:46;7.10;99.90
12013;DHT22;6065;48.138;16.402;2023-03-01T16:08:15;7.10;99.90
12013;DHT22;6065;48.138;16.402;2023-03-01T16:10:42;7.10;99.90
12013;DHT22;6065;48.138;16.402;2023-03-01T16:13:09;7.00;99.90
12013;DHT22;6065;48.138;16.402;2023-03-01T16:15:36;7.00;99.90